Terminal Aerodrome Forecast
Issued by NWS

Home | Current Version | Previous Version | Text Only | Print | Product List | Glossary On
Versions: 1 2 3 4 5 6 7 8 9 10 11 12 13 14 15 16 17 18 19 20 21 22 23 24 25 26 27
000
FTUS44 KJAN 041400 AAB
TAFHKS
TAF AMD
KHKS 041409Z 0414/0512 17008KT P6SM SCT008 BKN080
     FM041800 19012G18KT P6SM VCSH OVC015
     FM042300 33010KT 6SM RA BR OVC007=

USA.gov is the U.S. government's official web portal to all federal, state and local government web resources and services.